Flight Track Log - Related Links

Times and Time Zones

All times are in EDT time to prevent confusion due to time zone crossing. See the ASQ4516 flight status page for this flight to view local times or setup timezone preferences in your user account.

Time Position Orientation Groundspeed Altitude Reporting Facility
EDT Latitude Longitude Course Direction KTS MPH feet Rate Location/Type
Sat 12:29:03 PM 43.1072 -76.2058 270° West 184 212 3,100  Level Boston Center
Sat 12:30:03 PM 43.1339 -76.2844 295° West 260 299 5,600 2,578 Climbing Boston Center
Sat 12:31:00 PM 43.2012 -76.5085 281° West  Level FlightAware Approximate
Sat 12:31:11 PM 43.1758 -76.3808 301° West 271 312 8,600  Level Cleveland Center
Sat 12:32:00 PM 43.2171 -76.6187 286° West  Level FlightAware Approximate
Sat 12:32:11 PM 43.2044 -76.4786 292° West 271 312 10,500  Level Cleveland Center
Sat 12:33:00 PM 43.2403 -76.7265 286° West  Level FlightAware Approximate
Sat 12:33:11 PM 43.2253 -76.5969 284° West 292 336 12,400  Level Cleveland Center
Sat 12:34:11 PM 43.2253 -76.7225 270° West 322 371 14,200 1,800 Climbing Cleveland Center
Sat 12:35:11 PM 43.2211 -76.8481 267° West 327 376 16,000 1,700 Climbing Cleveland Center
Sat 12:36:11 PM 43.2150 -76.9794 266° West 336 387 17,600 1,300 Climbing Cleveland Center
Sat 12:37:11 PM 43.2122 -77.0992 268° West 347 399 18,600 1,250 Climbing Cleveland Center
Sat 12:38:11 PM 43.2100 -77.2333 269° West 352 405 20,100 1,500 Climbing Cleveland Center
Sat 12:39:11 PM 43.2075 -77.3672 269° West 352 405 21,600 1,350 Climbing Cleveland Center
Sat 12:40:11 PM 43.2028 -77.5044 267° West 352 405 22,800 1,200 Climbing Cleveland Center
Sat 12:41:11 PM 43.1986 -77.6611 268° West 371 427 24,000 1,100 Climbing Cleveland Center
Sat 12:42:11 PM 43.1939 -77.8039 267° West 377 434 25,000 1,000 Climbing Cleveland Center
Sat 12:43:11 PM 43.1889 -77.9522 267° West 382 440 26,000 1,000 Climbing Cleveland Center
Sat 12:44:11 PM 43.1839 -78.1033 267° West 393 452 27,000 950 Climbing Cleveland Center
Sat 12:45:11 PM 43.1786 -78.2544 267° West 398 458 27,900 950 Climbing Cleveland Center
Sat 12:46:11 PM 43.1714 -78.4056 266° West 403 464 28,900 1,000 Climbing Cleveland Center
Sat 12:47:11 PM 43.1678 -78.5594 268° West 403 464 29,900 1,000 Climbing Cleveland Center
Sat 12:48:11 PM 43.1619 -78.7133 267° West 403 464 30,900 1,000 Climbing Cleveland Center
Sat 12:49:11 PM 43.1539 -78.8672 266° West 403 464 31,900 982 Climbing Cleveland Center
Sat 12:50:01 PM 43.1333 -78.9667 254° West 400 460 32,700 982 Climbing Toronto Center
Sat 12:51:01 PM 43.1333 -79.1333 270° West 400 460 33,700 950 Climbing Toronto Center
Sat 12:52:01 PM 43.1333 -79.2667 270° West 400 460 34,600 950 Climbing Toronto Center
Sat 12:53:01 PM 43.1167 -79.4333 262° West 400 460 35,600 700 Climbing Toronto Center
Sat 12:54:01 PM 43.1167 -79.5833 270° West 400 460 36,000 200 Climbing Toronto Center
Sat 12:55:01 PM 43.1000 -79.7167 260° West 420 483 36,000  Level Toronto Center
Sat 12:56:01 PM 43.1000 -79.9000 270° West 430 495 36,000  Level Toronto Center
Sat 12:57:01 PM 43.0833 -80.0667 262° West 430 495 36,000  Level Toronto Center
Sat 12:58:01 PM 43.0833 -80.2333 270° West 420 483 36,000  Level Toronto Center
Sat 12:59:01 PM 43.0667 -80.3833 261° West 420 483 36,000  Level Toronto Center
Sat 01:00:01 PM 43.0667 -80.5500 270° West 420 483 36,000  Level Toronto Center
Sat 01:01:01 PM 43.0500 -80.7000 261° West 430 495 36,000  Level Toronto Center
Sat 01:02:01 PM 43.0333 -80.8667 262° West 440 506 36,000  Level Toronto Center
Sat 01:03:01 PM 43.0167 -81.0500 263° West 450 518 36,000  Level Toronto Center
Sat 01:04:01 PM 43.0167 -81.2000 270° West 450 518 36,000  Level Toronto Center
Sat 01:05:01 PM 43.0167 -81.3833 270° West 440 506 36,000  Level Toronto Center
Sat 01:06:01 PM 43.0167 -81.5500 270° West 440 506 36,000  Level Toronto Center
Sat 01:07:01 PM 43.0167 -81.7000 270° West 430 495 36,000  Level Toronto Center
Sat 01:08:01 PM 43.0167 -81.8833 270° West 430 495 36,000  Level Toronto Center
Sat 01:09:01 PM 43.0000 -82.0500 262° West 430 495 36,000  Level Toronto Center
Sat 01:10:01 PM 43.0000 -82.2167 270° West 430 495 36,000  Level Toronto Center
Sat 01:11:01 PM 43.0000 -82.3667 270° West 430 495 36,000  Level Toronto Center
Sat 01:12:01 PM 43.0000 -82.5333 270° West 430 495 36,000  Level Toronto Center
Sat 01:13:01 PM 42.9833 -82.7167 263° West 430 495 36,000  Level Toronto Center
Sat 01:13:47 PM 42.9969 -82.8200 280° West 441 507 36,000  Level Cleveland Center
Sat 01:14:47 PM 42.9936 -82.9844 268° West 441 507 36,000  Level Cleveland Center
Sat 01:15:47 PM 42.9861 -83.1489 266° West 441 507 36,000  Level Cleveland Center
Sat 01:16:47 PM 42.9822 -83.3133 268° West 441 507 36,000 -350 Level Cleveland Center
Sat 01:17:47 PM 42.9756 -83.5061 267° West 446 513 35,300 -850 Descending Cleveland Center
Sat 01:18:47 PM 42.9689 -83.6733 267° West 446 513 34,300 -950 Descending Cleveland Center
Sat 01:19:47 PM 42.9561 -83.8400 264° West 446 513 33,400 -950 Descending Cleveland Center
Sat 01:20:47 PM 42.9406 -84.0122 263° West 451 519 32,400 -700 Descending Cleveland Center
Sat 01:21:47 PM 42.9253 -84.1786 263° West 451 519 32,000 -240 Descending Cleveland Center
Sat 01:22:27 PM 42.9147 -84.2864 262° West 447 514 32,000  Level Chicago Center
Sat 01:23:29 PM 42.8978 -84.4522 262° West 443 510 32,000  Level Chicago Center
Sat 01:24:31 PM 42.8806 -84.6197 262° West 446 513 32,000  Level Chicago Center
Sat 01:25:32 PM 42.8633 -84.7889 262° West 451 519 32,000  Level Chicago Center
Sat 01:26:34 PM 42.8456 -84.9603 262° West 456 525 32,000  Level Chicago Center
Sat 01:27:36 PM 42.8264 -85.1322 261° West 459 528 32,000 -387 Level Chicago Center
Sat 01:28:38 PM 42.8081 -85.3042 262° West 458 527 31,200 -1,306 Descending Chicago Center
Sat 01:29:40 PM 42.7844 -85.5064 261° West 453 521 29,300 -1,790 Descending Chicago Center
Sat 01:30:42 PM 42.7544 -85.6750 256° West 455 524 27,500 -1,756 Descending Chicago Center
Sat 01:31:43 PM 42.7233 -85.8453 256° West 460 529 25,700 -1,805 Descending Chicago Center
Sat 01:32:45 PM 42.6939 -86.0083 256° West 445 512 23,800 -1,935 Descending Chicago Center
Sat 01:33:47 PM 42.6664 -86.1594 256° West 416 479 21,700 -1,839 Descending Chicago Center
Sat 01:34:49 PM 42.6397 -86.3064 256° West 401 461 20,000 -829 Descending Chicago Center
Sat 01:35:50 PM 42.6119 -86.4492 255° West 394 453 20,000  Level Chicago Center
Sat 01:36:52 PM 42.5833 -86.5992 256° West 409 471 20,000 -677 Level Chicago Center
Sat 01:37:54 PM 42.5539 -86.7572 256° West 410 472 18,600 -1,452 Descending Chicago Center
Sat 01:38:56 PM 42.5169 -86.8961 250° West 401 461 17,000 -1,790 Descending Chicago Center
Sat 01:39:58 PM 42.4736 -87.0500 249° West 386 444 14,900 -1,317 Descending Chicago Center
Sat 01:40:59 PM 42.4414 -87.1589 248° West 313 360 14,300 -1,024 Descending Chicago Center
Sat 01:42:01 PM 42.4156 -87.2558 250° West 274 315 12,800 -1,500 Descending Chicago Center
Sat 01:43:03 PM 42.3892 -87.3461 248° West 266 306 11,200 -1,355 Descending Chicago Center
Sat 01:44:05 PM 42.3639 -87.4433 251° West 271 312 10,000 -581 Descending Chicago Center
Sat 01:45:07 PM 42.3231 -87.5511 243° Southwest 276 318 10,000 -339 Level Chicago Center
Sat 01:46:09 PM 42.2636 -87.6147 218° Southwest 267 307 9,300 -829 Descending Chicago Center
Sat 01:47:10 PM 42.2017 -87.6786 217° Southwest 278 320 8,300 -634 Descending Chicago Center
Sat 01:48:12 PM 42.1425 -87.7406 218° Southwest 271 312 8,000 -145 Descending Chicago Center
Sat 01:49:14 PM 42.0942 -87.8175 230° Southwest 282 325 8,000  Level Chicago Center
Sat 01:50:16 PM 42.0914 -87.9381 268° West 275 316 8,000  Level Chicago Center
Sat 01:51:07 PM 42.1000 -88.0167 278° West 255 293 8,000 -51 Level Chicago TRACON
Sat 01:52:13 PM 42.0833 -88.1167 257° West 211 243 7,900  Descending Chicago TRACON
Sat 01:53:13 PM 42.0833 -88.1833 270° West 187 215 8,000 -316 Climbing Chicago TRACON
Sat 01:54:07 PM 42.0833 -88.2500 270° West 193 222 7,300 -526 Descending Chicago TRACON
Sat 01:55:07 PM 42.0833 -88.3167 270° West 180 207 7,000 -158 Descending Chicago TRACON
Sat 01:56:01 PM 42.0833 -88.3833 270° West 195 224 7,000  Level Chicago TRACON
Sat 01:57:07 PM 42.0833 -88.4667 270° West 209 241 7,000  Level Chicago TRACON
Sat 01:58:01 PM 42.0333 -88.4667 180° South 206 237 7,000  Level Chicago TRACON
Sat 01:58:56 PM 41.9833 -88.4333 154° Southeast 202 232 7,000  Level Chicago TRACON
Sat 01:59:32 PM 41.9772 -88.4064 107° East 204 235 7,000 -367 Level Chicago Center
Sat 02:00:34 PM 41.9653 -88.3317 102° East 208 239 6,400 -968 Descending Chicago Center
Sat 02:01:36 PM 41.9669 -88.2372 89° East 210 242 5,000 -1,220 Descending Chicago Center
Sat 02:02:37 PM 41.9675 -88.1608 89° East 207 238 3,900 -1,082 Descending Chicago Center

Login

Don't have an account? Register now (free) for customized features, flight alerts, and more!